PWSweather.com
Personal Weather Stations
Station Observations
KMAMEDFI2
Medfield, MA 02052

Medfield, MA 02052

Lat: 42.1900822, Lon: -71.3296889

Elevation: 138

Station Type: Rainwise WS MK-III

http://www.medfieldweather.com

High Low Average
Temperature 16.9°F-8.4°C -9.6°F-23.1°C 4.8°F-15.1°C
Dew Point 9.4°F-12.6°C -11.3°F-24.1°C -0.3°F-17.9°C
Winds 10.4 mph 16.7 kmh Calm Calm 2.0 mph WSW3.2 kmh WSW
Wind Gusts 11.5 mph18.5 kmh -- 2.0 mph3.2 kmh
Humidity 92% 46% 81%
Pressure 31.26 in1058.6 mb 30.24 in1024.0 mb -
Precipitation 0.00 in0.0 mm - -
Hour Temp Dew Point Humidity Winds Wind Gusts Pressure Precip Precip Rate Daily Precip Total
12:00 AM -5.2°F-20.7°C -6.9°F-21.6°C 92% Calm Calm -- 31.18 in1055.9 mb - 0.00 in0.0 mm 0.00 in0.0 mm
12:10 AM -5.5°F-20.8°C -7.2°F-21.8°C 92% Calm Calm -- 31.19 in1056.2 mb - 0.00 in0.0 mm 0.00 in0.0 mm
12:20 AM -5.8°F-21.0°C -7.5°F-21.9°C 92% Calm Calm -- 31.19 in1056.2 mb - 0.00 in0.0 mm 0.00 in0.0 mm
12:30 AM -6.1°F-21.2°C -7.8°F-22.1°C 92% Calm Calm -- 31.19 in1056.2 mb - 0.00 in0.0 mm 0.00 in0.0 mm
12:40 AM -5.8°F-21.0°C -7.5°F-21.9°C 92% Calm Calm -- 31.18 in1055.9 mb - 0.00 in0.0 mm 0.00 in0.0 mm
12:50 AM -6.2°F-21.2°C -7.9°F-22.2°C 92% Calm Calm -- 31.18 in1055.9 mb - 0.00 in0.0 mm 0.00 in0.0 mm
01:00 AM -6.4°F-21.3°C -8.1°F-22.3°C 92% Calm Calm -- 31.17 in1055.5 mb - 0.00 in0.0 mm 0.00 in0.0 mm
01:10 AM -6.3°F-21.3°C -8.0°F-22.2°C 92% Calm Calm -- 31.17 in1055.5 mb - 0.00 in0.0 mm 0.00 in0.0 mm
01:20 AM -6.7°F-21.5°C -8.4°F-22.4°C 92% Calm Calm -- 31.17 in1055.5 mb - 0.00 in0.0 mm 0.00 in0.0 mm
01:30 AM -6.6°F-21.4°C -8.3°F-22.4°C 92% Calm Calm -- 31.17 in1055.5 mb - 0.00 in0.0 mm 0.00 in0.0 mm
01:40 AM -7.1°F-21.7°C -8.8°F-22.7°C 92% Calm Calm -- 31.18 in1055.9 mb - 0.00 in0.0 mm 0.00 in0.0 mm
01:50 AM -7.8°F-22.1°C -9.5°F-23.1°C 92% Calm Calm -- 31.17 in1055.5 mb - 0.00 in0.0 mm 0.00 in0.0 mm
02:00 AM -8.3°F-22.4°C -10.0°F-23.3°C 92% Calm Calm -- 31.17 in1055.5 mb - 0.00 in0.0 mm 0.00 in0.0 mm
02:10 AM -9.2°F-22.9°C -10.9°F-23.8°C 92% Calm Calm -- 31.17 in1055.5 mb - 0.00 in0.0 mm 0.00 in0.0 mm
02:20 AM -9.5°F-23.1°C -11.2°F-24.0°C 92% Calm Calm -- 31.17 in1055.5 mb - 0.00 in0.0 mm 0.00 in0.0 mm
02:30 AM -9.2°F-22.9°C -10.9°F-23.8°C 92% Calm Calm -- 31.17 in1055.5 mb - 0.00 in0.0 mm 0.00 in0.0 mm
02:40 AM -9.6°F-23.1°C -11.3°F-24.1°C 92% Calm Calm -- 31.17 in1055.5 mb - 0.00 in0.0 mm 0.00 in0.0 mm
02:50 AM -9.2°F-22.9°C -10.9°F-23.8°C 92% Calm Calm -- 31.17 in1055.5 mb - 0.00 in0.0 mm 0.00 in0.0 mm
03:00 AM -9.3°F-22.9°C -11.0°F-23.9°C 92% Calm Calm -- 31.17 in1055.5 mb - 0.00 in0.0 mm 0.00 in0.0 mm
03:10 AM -9.4°F-23.0°C -11.1°F-23.9°C 92% Calm Calm -- 31.17 in1055.5 mb - 0.00 in0.0 mm 0.00 in0.0 mm
03:20 AM -8.6°F-22.6°C -10.3°F-23.5°C 92% Calm Calm -- 31.17 in1055.5 mb - 0.00 in0.0 mm 0.00 in0.0 mm
03:30 AM -8.5°F-22.5°C -10.2°F-23.4°C 92% Calm Calm -- 31.18 in1055.9 mb - 0.00 in0.0 mm 0.00 in0.0 mm
03:40 AM -8.6°F-22.6°C -10.3°F-23.5°C 92% Calm Calm -- 31.18 in1055.9 mb - 0.00 in0.0 mm 0.00 in0.0 mm
03:50 AM -9.1°F-22.8°C -10.8°F-23.8°C 92% Calm Calm -- 31.18 in1055.9 mb - 0.00 in0.0 mm 0.00 in0.0 mm
04:00 AM -9.1°F-22.8°C -10.8°F-23.8°C 92% Calm Calm -- 31.18 in1055.9 mb - 0.00 in0.0 mm 0.00 in0.0 mm
04:10 AM -8.2°F-22.3°C -9.9°F-23.3°C 92% Calm Calm -- 31.18 in1055.9 mb - 0.00 in0.0 mm 0.00 in0.0 mm
04:20 AM -8.2°F-22.3°C -9.9°F-23.3°C 92% Calm Calm -- 31.19 in1056.2 mb - 0.00 in0.0 mm 0.00 in0.0 mm
04:30 AM -8.6°F-22.6°C -10.3°F-23.5°C 92% Calm Calm -- 31.19 in1056.2 mb - 0.00 in0.0 mm 0.00 in0.0 mm
04:40 AM -8.6°F-22.6°C -10.3°F-23.5°C 92% Calm Calm -- 31.19 in1056.2 mb - 0.00 in0.0 mm 0.00 in0.0 mm
04:50 AM -8.8°F-22.7°C -10.5°F-23.6°C 92% Calm Calm -- 31.20 in1056.6 mb - 0.00 in0.0 mm 0.00 in0.0 mm
05:00 AM -7.8°F-22.1°C -9.5°F-23.1°C 92% Calm Calm -- 31.20 in1056.6 mb - 0.00 in0.0 mm 0.00 in0.0 mm
05:10 AM -6.8°F-21.6°C -8.5°F-22.5°C 92% Calm Calm -- 31.21 in1056.9 mb - 0.00 in0.0 mm 0.00 in0.0 mm
05:20 AM -6.2°F-21.2°C -7.9°F-22.2°C 92% Calm Calm -- 31.21 in1056.9 mb - 0.00 in0.0 mm 0.00 in0.0 mm
05:30 AM -6.4°F-21.3°C -8.2°F-22.3°C 92% Calm Calm -- 31.22 in1057.2 mb - 0.00 in0.0 mm 0.00 in0.0 mm
05:40 AM -6.3°F-21.3°C -8.0°F-22.2°C 92% Calm Calm -- 31.22 in1057.2 mb - 0.00 in0.0 mm 0.00 in0.0 mm
05:50 AM -6.1°F-21.2°C -7.8°F-22.1°C 92% 2.3 mph SW3.7 kmh SW 1.2 mph1.9 kmh 31.22 in1057.2 mb - 0.00 in0.0 mm 0.00 in0.0 mm
06:00 AM -5.2°F-20.7°C -6.9°F-21.6°C 92% Calm Calm -- 31.22 in1057.2 mb - 0.00 in0.0 mm 0.00 in0.0 mm
06:10 AM -5.2°F-20.7°C -6.9°F-21.6°C 92% Calm Calm -- 31.23 in1057.6 mb - 0.00 in0.0 mm 0.00 in0.0 mm
06:20 AM -5.2°F-20.7°C -6.9°F-21.6°C 92% Calm Calm -- 31.23 in1057.6 mb - 0.00 in0.0 mm 0.00 in0.0 mm
06:30 AM -5.2°F-20.7°C -6.9°F-21.6°C 92% Calm Calm -- 31.24 in1057.9 mb - 0.00 in0.0 mm 0.00 in0.0 mm
06:40 AM -5.2°F-20.7°C -6.9°F-21.6°C 92% Calm Calm -- 31.24 in1057.9 mb - 0.00 in0.0 mm 0.00 in0.0 mm
06:50 AM -4.6°F-20.3°C -6.3°F-21.3°C 92% Calm Calm -- 31.24 in1057.9 mb - 0.00 in0.0 mm 0.00 in0.0 mm
07:00 AM -4.0°F-20.0°C -5.7°F-20.9°C 92% 1.2 mph ESE1.9 kmh ESE 1.2 mph1.9 kmh 31.25 in1058.2 mb - 0.00 in0.0 mm 0.00 in0.0 mm
07:10 AM -2.8°F-19.3°C -4.8°F-20.4°C 91% Calm Calm -- 31.26 in1058.6 mb - 0.00 in0.0 mm 0.00 in0.0 mm
07:20 AM -2.3°F-19.1°C -4.3°F-20.2°C 91% Calm Calm -- 31.26 in1058.6 mb - 0.00 in0.0 mm 0.00 in0.0 mm
07:30 AM -3.1°F-19.5°C -5.1°F-20.6°C 91% Calm Calm -- 31.26 in1058.6 mb - 0.00 in0.0 mm 0.00 in0.0 mm
07:40 AM -3.2°F-19.6°C -5.2°F-20.7°C 91% Calm Calm -- 31.26 in1058.6 mb - 0.00 in0.0 mm 0.00 in0.0 mm
07:50 AM -2.6°F-19.2°C -4.5°F-20.3°C 91% Calm Calm 1.2 mph1.9 kmh 31.25 in1058.2 mb - 0.00 in0.0 mm 0.00 in0.0 mm
08:00 AM -2.4°F-19.1°C -4.4°F-20.2°C 91% Calm Calm -- 31.26 in1058.6 mb - 0.00 in0.0 mm 0.00 in0.0 mm
08:10 AM -0.8°F-18.2°C -2.8°F-19.3°C 91% Calm Calm -- 31.24 in1057.9 mb - 0.00 in0.0 mm 0.00 in0.0 mm
08:20 AM 0.3°F-17.6°C -1.7°F-18.7°C 91% Calm Calm -- 31.22 in1057.2 mb - 0.00 in0.0 mm 0.00 in0.0 mm
08:30 AM 2.0°F-16.7°C 0.0°F-17.8°C 91% 2.3 mph WNW3.7 kmh WNW 1.2 mph1.9 kmh 31.21 in1056.9 mb - 0.00 in0.0 mm 0.00 in0.0 mm
08:40 AM 4.2°F-15.4°C 2.3°F-16.5°C 92% 1.2 mph SW1.9 kmh SW 2.3 mph3.7 kmh 31.18 in1055.9 mb - 0.00 in0.0 mm 0.00 in0.0 mm
08:50 AM 5.1°F-14.9°C 3.1°F-16.1°C 91% 2.3 mph NW3.7 kmh NW 5.8 mph9.3 kmh 31.14 in1054.5 mb - 0.00 in0.0 mm 0.00 in0.0 mm
09:00 AM 6.1°F-14.4°C -1.0°F-18.3°C 72% 5.8 mph SW9.3 kmh SW 5.8 mph9.3 kmh 30.56 in1034.9 mb - 0.00 in0.0 mm 0.00 in0.0 mm
09:10 AM 6.9°F-13.9°C -1.4°F-18.6°C 68% 3.5 mph WSW5.6 kmh WSW 2.3 mph3.7 kmh 30.49 in1032.5 mb - 0.00 in0.0 mm 0.00 in0.0 mm
09:20 AM 7.7°F-13.5°C 0.2°F-17.7°C 71% Calm Calm 2.3 mph3.7 kmh 30.52 in1033.5 mb - 0.00 in0.0 mm 0.00 in0.0 mm
09:30 AM 7.8°F-13.4°C 1.5°F-16.9°C 75% 3.5 mph SW5.6 kmh SW 2.3 mph3.7 kmh 30.85 in1044.7 mb - 0.00 in0.0 mm 0.00 in0.0 mm
09:40 AM 7.9°F-13.4°C 1.0°F-17.2°C 73% 8.1 mph NW13.0 kmh NW 8.1 mph13.0 kmh 30.84 in1044.4 mb - 0.00 in0.0 mm 0.00 in0.0 mm
09:50 AM 8.5°F-13.1°C -2.6°F-19.2°C 60% 5.8 mph WNW9.3 kmh WNW 5.8 mph9.3 kmh 30.45 in1031.2 mb - 0.00 in0.0 mm 0.00 in0.0 mm
10:00 AM 9.1°F-12.7°C 0.4°F-17.6°C 67% 1.2 mph SE1.9 kmh SE 8.1 mph13.0 kmh 30.66 in1038.3 mb - 0.00 in0.0 mm 0.00 in0.0 mm
10:10 AM 9.7°F-12.4°C -0.1°F-17.8°C 64% 3.5 mph WSW5.6 kmh WSW 8.1 mph13.0 kmh 30.72 in1040.3 mb - 0.00 in0.0 mm 0.00 in0.0 mm
10:20 AM 10.2°F-12.1°C -2.8°F-19.3°C 55% 4.6 mph NW7.4 kmh NW 5.8 mph9.3 kmh 30.25 in1024.4 mb - 0.00 in0.0 mm 0.00 in0.0 mm
10:30 AM 11.1°F-11.6°C -1.9°F-18.8°C 55% 10.4 mph S16.7 kmh S 11.5 mph18.5 kmh 30.25 in1024.4 mb - 0.00 in0.0 mm 0.00 in0.0 mm
10:40 AM 11.4°F-11.4°C -2.4°F-19.1°C 53% 6.9 mph WSW11.1 kmh WSW 8.1 mph13.0 kmh 30.25 in1024.4 mb - 0.00 in0.0 mm 0.00 in0.0 mm
10:50 AM 11.9°F-11.2°C -2.3°F-19.1°C 52% 2.3 mph WSW3.7 kmh WSW 2.3 mph3.7 kmh 30.24 in1024.0 mb - 0.00 in0.0 mm 0.00 in0.0 mm
11:00 AM 12.7°F-10.7°C -2.4°F-19.1°C 50% 1.2 mph SE1.9 kmh SE -- 30.27 in1025.1 mb - 0.00 in0.0 mm 0.00 in0.0 mm
11:10 AM 13.2°F-10.4°C -1.6°F-18.7°C 51% 3.5 mph W5.6 kmh W 2.3 mph3.7 kmh 30.46 in1031.5 mb - 0.00 in0.0 mm 0.00 in0.0 mm
11:20 AM 13.3°F-10.4°C -0.3°F-17.9°C 54% 3.5 mph WSW5.6 kmh WSW 2.3 mph3.7 kmh 30.58 in1035.6 mb - 0.00 in0.0 mm 0.00 in0.0 mm
11:30 AM 13.6°F-10.2°C -0.4°F-18.0°C 53% 4.6 mph SW7.4 kmh SW 9.2 mph14.8 kmh 30.57 in1035.2 mb - 0.00 in0.0 mm 0.00 in0.0 mm
11:40 AM 14.7°F-9.6°C -0.6°F-18.1°C 50% 6.9 mph WNW11.1 kmh WNW 2.3 mph3.7 kmh 30.57 in1035.2 mb - 0.00 in0.0 mm 0.00 in0.0 mm
11:50 AM 14.8°F-9.6°C -0.5°F-18.1°C 50% 4.6 mph NNW7.4 kmh NNW 6.9 mph11.1 kmh 30.57 in1035.2 mb - 0.00 in0.0 mm 0.00 in0.0 mm
12:00 PM 15.1°F-9.4°C -0.6°F-18.1°C 49% 8.1 mph W13.0 kmh W 8.1 mph13.0 kmh 30.57 in1035.2 mb - 0.00 in0.0 mm 0.00 in0.0 mm
12:10 PM 15.1°F-9.4°C -0.3°F-17.9°C 50% 8.1 mph NW13.0 kmh NW 6.9 mph11.1 kmh 30.57 in1035.2 mb - 0.00 in0.0 mm 0.00 in0.0 mm
12:20 PM 14.9°F-9.5°C -0.8°F-18.2°C 49% 4.6 mph WSW7.4 kmh WSW 3.5 mph5.6 kmh 30.57 in1035.2 mb - 0.00 in0.0 mm 0.00 in0.0 mm
12:30 PM 15.1°F-9.4°C -0.2°F-17.9°C 50% 5.8 mph W9.3 kmh W 8.1 mph13.0 kmh 30.58 in1035.6 mb - 0.00 in0.0 mm 0.00 in0.0 mm
12:40 PM 15.3°F-9.3°C 0.0°F-17.8°C 50% 2.3 mph W3.7 kmh W 2.3 mph3.7 kmh 30.60 in1036.2 mb - 0.00 in0.0 mm 0.00 in0.0 mm
12:50 PM 15.7°F-9.1°C 0.3°F-17.6°C 50% 6.9 mph WSW11.1 kmh WSW 5.8 mph9.3 kmh 30.56 in1034.9 mb - 0.00 in0.0 mm 0.00 in0.0 mm
01:00 PM 15.7°F-9.1°C -0.5°F-18.1°C 48% 3.5 mph WSW5.6 kmh WSW 5.8 mph9.3 kmh 30.56 in1034.9 mb - 0.00 in0.0 mm 0.00 in0.0 mm
01:10 PM 16.1°F-8.8°C -0.2°F-17.9°C 48% 9.2 mph NNW14.8 kmh NNW 10.4 mph16.7 kmh 30.58 in1035.6 mb - 0.00 in0.0 mm 0.00 in0.0 mm
01:20 PM 16.2°F-8.8°C -1.0°F-18.3°C 46% 5.8 mph W9.3 kmh W 8.1 mph13.0 kmh 30.55 in1034.5 mb - 0.00 in0.0 mm 0.00 in0.0 mm
01:30 PM 16.6°F-8.6°C -0.6°F-18.1°C 46% 5.8 mph NW9.3 kmh NW 8.1 mph13.0 kmh 30.57 in1035.2 mb - 0.00 in0.0 mm 0.00 in0.0 mm
01:40 PM 16.7°F-8.5°C 0.8°F-17.3°C 49% 2.3 mph W3.7 kmh W 5.8 mph9.3 kmh 30.60 in1036.2 mb - 0.00 in0.0 mm 0.00 in0.0 mm
01:50 PM 16.8°F-8.4°C 2.2°F-16.6°C 52% 2.3 mph W3.7 kmh W 5.8 mph9.3 kmh 30.64 in1037.6 mb - 0.00 in0.0 mm 0.00 in0.0 mm
02:00 PM 16.8°F-8.4°C 3.4°F-15.9°C 55% 3.5 mph SW5.6 kmh SW 2.3 mph3.7 kmh 30.66 in1038.3 mb - 0.00 in0.0 mm 0.00 in0.0 mm
02:10 PM 16.7°F-8.5°C 4.1°F-15.5°C 57% 3.5 mph NNW5.6 kmh NNW 2.3 mph3.7 kmh 30.69 in1039.3 mb - 0.00 in0.0 mm 0.00 in0.0 mm
02:20 PM 16.6°F-8.6°C 4.7°F-15.2°C 59% 2.3 mph WSW3.7 kmh WSW 2.3 mph3.7 kmh 30.71 in1040.0 mb - 0.00 in0.0 mm 0.00 in0.0 mm
02:30 PM 16.6°F-8.6°C 5.5°F-14.7°C 61% 4.6 mph WSW7.4 kmh WSW 3.5 mph5.6 kmh 30.72 in1040.3 mb - 0.00 in0.0 mm 0.00 in0.0 mm
02:40 PM 16.8°F-8.4°C 6.4°F-14.2°C 63% 2.3 mph SW3.7 kmh SW 2.3 mph3.7 kmh 30.72 in1040.3 mb - 0.00 in0.0 mm 0.00 in0.0 mm
02:50 PM 16.9°F-8.4°C 6.5°F-14.2°C 63% 4.6 mph W7.4 kmh W 5.8 mph9.3 kmh 30.72 in1040.3 mb - 0.00 in0.0 mm 0.00 in0.0 mm
03:00 PM 16.9°F-8.4°C 6.5°F-14.2°C 63% 6.9 mph WSW11.1 kmh WSW 8.1 mph13.0 kmh 30.73 in1040.6 mb - 0.00 in0.0 mm 0.00 in0.0 mm
03:10 PM 16.9°F-8.4°C 7.2°F-13.8°C 65% 3.5 mph WSW5.6 kmh WSW 5.8 mph9.3 kmh 30.74 in1041.0 mb - 0.00 in0.0 mm 0.00 in0.0 mm
03:20 PM 16.9°F-8.4°C 7.8°F-13.4°C 67% 6.9 mph W11.1 kmh W 5.8 mph9.3 kmh 30.75 in1041.3 mb - 0.00 in0.0 mm 0.00 in0.0 mm
03:30 PM 16.8°F-8.4°C 7.7°F-13.5°C 67% 1.2 mph W1.9 kmh W 2.3 mph3.7 kmh 30.76 in1041.7 mb - 0.00 in0.0 mm 0.00 in0.0 mm
03:40 PM 16.6°F-8.6°C 7.9°F-13.4°C 68% 2.3 mph S3.7 kmh S 2.3 mph3.7 kmh 30.78 in1042.3 mb - 0.00 in0.0 mm 0.00 in0.0 mm
03:50 PM 16.6°F-8.6°C 7.9°F-13.4°C 68% 2.3 mph WSW3.7 kmh WSW 1.2 mph1.9 kmh 30.79 in1042.7 mb - 0.00 in0.0 mm 0.00 in0.0 mm
04:00 PM 16.4°F-8.7°C 8.3°F-13.2°C 70% Calm Calm -- 30.81 in1043.3 mb - 0.00 in0.0 mm 0.00 in0.0 mm
04:10 PM 16.2°F-8.8°C 8.8°F-12.9°C 72% 1.2 mph WSW1.9 kmh WSW 2.3 mph3.7 kmh 30.83 in1044.0 mb - 0.00 in0.0 mm 0.00 in0.0 mm
04:20 PM 16.1°F-8.8°C 9.3°F-12.6°C 74% Calm Calm -- 30.85 in1044.7 mb - 0.00 in0.0 mm 0.00 in0.0 mm
04:30 PM 15.6°F-9.1°C 9.1°F-12.7°C 75% 2.3 mph NNW3.7 kmh NNW 5.8 mph9.3 kmh 30.87 in1045.4 mb - 0.00 in0.0 mm 0.00 in0.0 mm
04:40 PM 15.0°F-9.4°C 9.4°F-12.6°C 78% Calm Calm -- 30.88 in1045.7 mb - 0.00 in0.0 mm 0.00 in0.0 mm
04:50 PM 14.0°F-10.0°C 9.2°F-12.7°C 81% Calm Calm -- 30.89 in1046.1 mb - 0.00 in0.0 mm 0.00 in0.0 mm
05:00 PM 12.8°F-10.7°C 9.2°F-12.7°C 85% Calm Calm -- 30.91 in1046.7 mb - 0.00 in0.0 mm 0.00 in0.0 mm
05:10 PM 12.0°F-11.1°C 9.1°F-12.7°C 88% Calm Calm -- 30.92 in1047.1 mb - 0.00 in0.0 mm 0.00 in0.0 mm
05:20 PM 11.2°F-11.6°C 8.9°F-12.8°C 90% Calm Calm -- 30.93 in1047.4 mb - 0.00 in0.0 mm 0.00 in0.0 mm
05:30 PM 10.4°F-12.0°C 8.6°F-13.0°C 92% Calm Calm -- 30.94 in1047.7 mb - 0.00 in0.0 mm 0.00 in0.0 mm
05:40 PM 10.2°F-12.1°C 8.3°F-13.2°C 92% Calm Calm -- 30.96 in1048.4 mb - 0.00 in0.0 mm 0.00 in0.0 mm
05:50 PM 9.6°F-12.4°C 7.8°F-13.4°C 92% Calm Calm -- 30.98 in1049.1 mb - 0.00 in0.0 mm 0.00 in0.0 mm
06:00 PM 8.9°F-12.8°C 7.1°F-13.8°C 92% Calm Calm -- 30.99 in1049.4 mb - 0.00 in0.0 mm 0.00 in0.0 mm
06:10 PM 8.3°F-13.2°C 6.5°F-14.2°C 92% Calm Calm -- 31.00 in1049.8 mb - 0.00 in0.0 mm 0.00 in0.0 mm
06:20 PM 8.2°F-13.2°C 6.4°F-14.2°C 92% Calm Calm -- 31.02 in1050.5 mb - 0.00 in0.0 mm 0.00 in0.0 mm
06:30 PM 8.1°F-13.3°C 6.3°F-14.3°C 92% Calm Calm -- 31.04 in1051.1 mb - 0.00 in0.0 mm 0.00 in0.0 mm
06:40 PM 7.5°F-13.6°C 5.7°F-14.6°C 92% Calm Calm -- 31.05 in1051.5 mb - 0.00 in0.0 mm 0.00 in0.0 mm
06:50 PM 7.4°F-13.7°C 5.6°F-14.7°C 92% Calm Calm -- 31.06 in1051.8 mb - 0.00 in0.0 mm 0.00 in0.0 mm
07:00 PM 7.8°F-13.4°C 5.9°F-14.5°C 92% Calm Calm -- 31.08 in1052.5 mb - 0.00 in0.0 mm 0.00 in0.0 mm
07:10 PM 7.7°F-13.5°C 5.9°F-14.5°C 92% Calm Calm -- 31.09 in1052.8 mb - 0.00 in0.0 mm 0.00 in0.0 mm
07:20 PM 7.7°F-13.5°C 5.8°F-14.6°C 92% 2.3 mph ESE3.7 kmh ESE 2.3 mph3.7 kmh 31.10 in1053.2 mb - 0.00 in0.0 mm 0.00 in0.0 mm
07:30 PM 8.1°F-13.3°C 6.3°F-14.3°C 92% Calm Calm -- 31.12 in1053.8 mb - 0.00 in0.0 mm 0.00 in0.0 mm
07:40 PM 7.5°F-13.6°C 5.7°F-14.6°C 92% Calm Calm -- 31.13 in1054.2 mb - 0.00 in0.0 mm 0.00 in0.0 mm
07:50 PM 7.3°F-13.7°C 5.5°F-14.7°C 92% Calm Calm -- 31.14 in1054.5 mb - 0.00 in0.0 mm 0.00 in0.0 mm
08:00 PM 8.4°F-13.1°C 6.5°F-14.2°C 92% 1.2 mph SW1.9 kmh SW 1.2 mph1.9 kmh 31.14 in1054.5 mb - 0.00 in0.0 mm 0.00 in0.0 mm
08:10 PM 8.7°F-12.9°C 6.9°F-13.9°C 92% 2.3 mph SW3.7 kmh SW 2.3 mph3.7 kmh 31.14 in1054.5 mb - 0.00 in0.0 mm 0.00 in0.0 mm
08:20 PM 8.6°F-13.0°C 6.8°F-14.0°C 92% 1.2 mph SW1.9 kmh SW 1.2 mph1.9 kmh 31.15 in1054.9 mb - 0.00 in0.0 mm 0.00 in0.0 mm
08:30 PM 8.3°F-13.2°C 6.5°F-14.2°C 92% 2.3 mph SW3.7 kmh SW 2.3 mph3.7 kmh 31.15 in1054.9 mb - 0.00 in0.0 mm 0.00 in0.0 mm
08:40 PM 7.8°F-13.4°C 6.0°F-14.4°C 92% Calm Calm -- 31.16 in1055.2 mb - 0.00 in0.0 mm 0.00 in0.0 mm
08:50 PM 7.1°F-13.8°C 5.3°F-14.8°C 92% Calm Calm -- 31.17 in1055.5 mb - 0.00 in0.0 mm 0.00 in0.0 mm
09:00 PM 6.3°F-14.3°C 4.5°F-15.3°C 92% Calm Calm -- 31.17 in1055.5 mb - 0.00 in0.0 mm 0.00 in0.0 mm
09:10 PM 5.9°F-14.5°C 4.1°F-15.5°C 92% Calm Calm -- 31.17 in1055.5 mb - 0.00 in0.0 mm 0.00 in0.0 mm
09:20 PM 6.0°F-14.4°C 4.2°F-15.4°C 92% Calm Calm -- 31.18 in1055.9 mb - 0.00 in0.0 mm 0.00 in0.0 mm
09:30 PM 5.5°F-14.7°C 3.7°F-15.7°C 92% Calm Calm -- 31.18 in1055.9 mb - 0.00 in0.0 mm 0.00 in0.0 mm
09:40 PM 5.6°F-14.7°C 3.8°F-15.7°C 92% 1.2 mph SE1.9 kmh SE 1.2 mph1.9 kmh 31.18 in1055.9 mb - 0.00 in0.0 mm 0.00 in0.0 mm
09:50 PM 6.8°F-14.0°C 5.0°F-15.0°C 92% Calm Calm 1.2 mph1.9 kmh 31.19 in1056.2 mb - 0.00 in0.0 mm 0.00 in0.0 mm
10:00 PM 8.6°F-13.0°C 6.8°F-14.0°C 92% Calm Calm 1.2 mph1.9 kmh 31.19 in1056.2 mb - 0.00 in0.0 mm 0.00 in0.0 mm
10:10 PM 9.4°F-12.6°C 7.5°F-13.6°C 92% 1.2 mph W1.9 kmh W 1.2 mph1.9 kmh 31.20 in1056.6 mb - 0.00 in0.0 mm 0.00 in0.0 mm
10:20 PM 9.2°F-12.7°C 7.3°F-13.7°C 92% Calm Calm -- 31.20 in1056.6 mb - 0.00 in0.0 mm 0.00 in0.0 mm
10:30 PM 8.3°F-13.2°C 6.4°F-14.2°C 92% Calm Calm -- 31.20 in1056.6 mb - 0.00 in0.0 mm 0.00 in0.0 mm
10:40 PM 7.0°F-13.9°C 5.2°F-14.9°C 92% Calm Calm -- 31.21 in1056.9 mb - 0.00 in0.0 mm 0.00 in0.0 mm
10:50 PM 6.2°F-14.3°C 4.4°F-15.3°C 92% Calm Calm -- 31.21 in1056.9 mb - 0.00 in0.0 mm 0.00 in0.0 mm
11:00 PM 5.9°F-14.5°C 4.1°F-15.5°C 92% Calm Calm -- 31.22 in1057.2 mb - 0.00 in0.0 mm 0.00 in0.0 mm
11:10 PM 5.8°F-14.6°C 4.0°F-15.6°C 92% Calm Calm -- 31.22 in1057.2 mb - 0.00 in0.0 mm 0.00 in0.0 mm
11:20 PM 5.9°F-14.5°C 4.1°F-15.5°C 92% Calm Calm -- 31.22 in1057.2 mb - 0.00 in0.0 mm 0.00 in0.0 mm
11:30 PM 6.2°F-14.3°C 4.4°F-15.3°C 92% Calm Calm -- 31.22 in1057.2 mb - 0.00 in0.0 mm 0.00 in0.0 mm
11:40 PM 6.4°F-14.2°C 4.6°F-15.2°C 92% Calm Calm -- 31.22 in1057.2 mb - 0.00 in0.0 mm 0.00 in0.0 mm
11:50 PM 7.4°F-13.7°C 5.6°F-14.7°C 92% 3.5 mph WSW5.6 kmh WSW 2.3 mph3.7 kmh 31.22 in1057.2 mb - 0.00 in0.0 mm 0.00 in0.0 mm